Flight Track Log - Related Links

Times and Time Zones

All times are in EDT time to prevent confusion due to time zone crossing. See the GJS3618 flight status page for this flight to view local times or setup timezone preferences in your user account.

Time Position Orientation Groundspeed Altitude Reporting Facility
EDT Latitude Longitude Course Direction KTS MPH feet Rate Location/Type
Sat 07:53:51 AM 41.3186 -95.9003 270° West 159 183 1,500  Level Minneapolis Center
Sat 07:54:57 AM 41.3633 -95.9450 323° Northwest 206 237 3,800 2,220 Climbing Minneapolis Center
Sat 07:55:58 AM 41.3714 -96.0356 277° West 277 319 6,200 2,344 Climbing Minneapolis Center
Sat 07:57:00 AM 41.3164 -96.4131 276° West  Level FlightAware Approximate
Sat 07:57:05 AM 41.3739 -96.1264 272° West 267 307 8,800  Level Minneapolis Center
Sat 07:58:00 AM 41.3167 -96.5458 270° West  Level FlightAware Approximate
Sat 07:58:06 AM 41.3744 -96.2297 270° West 276 318 11,400  Level Minneapolis Center
Sat 07:59:06 AM 41.3667 -96.3431 265° West 300 345 13,100 1,587 Climbing Minneapolis Center
Sat 08:00:07 AM 41.3519 -96.4717 261° West 341 392 14,600 1,721 Climbing Minneapolis Center
Sat 08:01:08 AM 41.3361 -96.6078 261° West 365 420 16,600 1,884 Climbing Minneapolis Center
Sat 08:02:08 AM 41.3200 -96.7464 261° West 376 433 18,400 1,785 Climbing Minneapolis Center
Sat 08:03:09 AM 41.3033 -96.8886 261° West 384 442 20,200 1,636 Climbing Minneapolis Center
Sat 08:04:09 AM 41.2811 -97.0625 260° West 394 453 21,700 1,488 Climbing Minneapolis Center
Sat 08:05:10 AM 41.2631 -97.2131 261° West 408 470 23,200 1,328 Climbing Minneapolis Center
Sat 08:06:11 AM 41.2442 -97.3656 261° West 416 479 24,400 1,180 Climbing Minneapolis Center
Sat 08:07:12 AM 41.2250 -97.5136 260° West 421 484 25,600 1,289 Climbing Minneapolis Center
Sat 08:08:12 AM 41.2053 -97.6686 260° West 425 489 27,000 1,289 Climbing Minneapolis Center
Sat 08:09:13 AM 41.1867 -97.8239 261° West 425 489 28,200 1,230 Climbing Minneapolis Center
Sat 08:10:14 AM 41.1664 -97.9792 260° West 426 490 29,500 1,343 Climbing Minneapolis Center
Sat 08:11:27 AM 41.1431 -98.1614 260° West 420 483 31,200 1,263 Climbing Minneapolis Center
Sat 08:12:27 AM 41.1242 -98.3103 260° West 412 474 32,300 1,041 Climbing Minneapolis Center
Sat 08:13:28 AM 41.1031 -98.4656 260° West 413 475 33,300 1,033 Climbing Minneapolis Center
Sat 08:14:29 AM 41.0825 -98.6153 260° West 414 476 34,400 1,131 Climbing Minneapolis Center
Sat 08:15:30 AM 41.0611 -98.7647 259° West 413 475 35,600 1,091 Climbing Minneapolis Center
Sat 08:16:30 AM 41.0386 -98.9133 259° West 412 474 36,600 992 Climbing Minneapolis Center
Sat 08:17:31 AM 41.0222 -99.0550 261° West 394 453 37,600 689 Climbing Minneapolis Center
Sat 08:18:32 AM 41.0011 -99.2072 260° West 394 453 38,000 197 Climbing Minneapolis Center
Sat 08:19:33 AM 40.9803 -99.3539 259° West 401 461 38,000  Level Minneapolis Center
Sat 08:20:44 AM 40.9544 -99.5339 259° West 414 476 38,000  Level Denver Center
Sat 08:21:44 AM 40.9325 -99.6864 259° West 420 483 38,000  Level Denver Center
Sat 08:22:45 AM 40.9103 -99.8356 259° West 422 486 38,000  Level Denver Center
Sat 08:23:45 AM 40.8853 -100.0050 259° West 421 484 38,000  Level Denver Center
Sat 08:24:46 AM 40.8644 -100.1492 259° West 419 482 38,000  Level Denver Center
Sat 08:25:46 AM 40.8419 -100.2931 258° West 419 482 38,000  Level Denver Center
Sat 08:26:47 AM 40.8206 -100.4367 259° West 419 482 38,000  Level Denver Center
Sat 08:27:47 AM 40.7936 -100.6025 258° West 411 473 38,000  Level Denver Center
Sat 08:28:48 AM 40.7653 -100.7592 257° West 448 516 38,000  Level Denver Center
Sat 08:29:48 AM 40.7444 -100.9086 260° West 434 499 38,000  Level Denver Center
Sat 08:30:49 AM 40.7217 -101.0511 258° West 418 481 38,000  Level Denver Center
Sat 08:31:49 AM 40.7011 -101.1706 257° West 419 482 38,000  Level Denver Center
Sat 08:32:50 AM 40.6681 -101.3619 257° West 422 486 38,000  Level Denver Center
Sat 08:33:50 AM 40.6433 -101.5064 257° West 423 487 38,000  Level Denver Center
Sat 08:34:51 AM 40.6131 -101.6750 257° West 423 487 38,000  Level Denver Center
Sat 08:35:51 AM 40.5869 -101.8189 257° West 423 487 38,000  Level Denver Center
Sat 08:36:52 AM 40.5608 -101.9622 257° West 422 486 38,000  Level Denver Center
Sat 08:37:53 AM 40.5331 -102.1067 256° West 426 490 38,000  Level Denver Center
Sat 08:38:53 AM 40.5014 -102.2747 256° West 425 489 38,000  Level Denver Center
Sat 08:39:54 AM 40.4750 -102.4206 257° West 428 493 38,000 -248 Level Denver Center
Sat 08:40:54 AM 40.4478 -102.5636 256° West 424 488 37,500 -1,041 Descending Denver Center
Sat 08:41:55 AM 40.4172 -102.7258 256° West 432 497 35,900 -1,574 Descending Denver Center
Sat 08:42:56 AM 40.3883 -102.8819 256° West 439 505 34,300 -1,736 Descending Denver Center
Sat 08:43:56 AM 40.3586 -103.0364 256° West 439 505 32,400 -1,934 Descending Denver Center
Sat 08:44:57 AM 40.3314 -103.1847 257° West 421 484 30,400 -1,884 Descending Denver Center
Sat 08:45:57 AM 40.3025 -103.3250 255° West 403 464 28,600 -1,884 Descending Denver Center
Sat 08:46:58 AM 40.2764 -103.4675 257° West 404 465 26,600 -1,967 Descending Denver Center
Sat 08:47:59 AM 40.2492 -103.6056 256° West 394 453 24,600 -2,132 Descending Denver Center
Sat 08:48:59 AM 40.2175 -103.7608 255° West 389 448 22,300 -2,132 Descending Denver Center
Sat 08:50:00 AM 40.1886 -103.8811 253° West 352 405 20,300 -1,820 Descending Denver Center
Sat 08:51:01 AM 40.1400 -103.9833 238° Southwest 334 384 18,600 -1,587 Descending Denver Center
Sat 08:52:01 AM 40.0911 -104.0889 239° Southwest 340 391 17,100 -1,537 Descending Denver Center
Sat 08:53:02 AM 40.0436 -104.1903 239° Southwest 328 377 15,500 -1,289 Descending Denver Center
Sat 08:54:02 AM 39.9992 -104.2881 239° Southwest 315 362 14,500 -1,041 Descending Denver Center
Sat 08:55:03 AM 39.9528 -104.3853 238° Southwest 317 365 13,400 -1,080 Descending Denver Center
Sat 08:55:42 AM 39.9167 -104.4500 234° Southwest 307 353 12,700 -1,152 Descending Denver TRACON
Sat 08:56:42 AM 39.8500 -104.5000 210° Southwest 296 341 11,500 -850 Descending Denver TRACON
Sat 08:57:42 AM 39.7833 -104.5000 180° South 254 292 11,000 -500 Descending Denver TRACON
Sat 08:58:42 AM 39.7167 -104.5000 180° South 235 270 10,500 -750 Descending Denver TRACON
Sat 08:59:42 AM 39.6500 -104.5000 180° South 223 257 9,500 -1,000 Descending Denver TRACON
Sat 09:00:42 AM 39.6167 -104.5500 229° Southwest 220 253 8,500 -950 Descending Denver TRACON
Sat 09:01:42 AM 39.6333 -104.6167 288° West 216 249 7,600 -750 Descending Denver TRACON
Sat 09:02:42 AM 39.6833 -104.6333 346° North 187 215 7,000 -298 Descending Denver TRACON
Sat 09:03:43 AM 39.7333 -104.6500 346° North 190 219 7,000 -298 Level Denver TRACON
Sat 09:04:43 AM 39.7833 -104.6500 360° North 155 178 6,400 -700 Descending Denver TRACON
Sat 09:05:43 AM 39.8167 -104.6500 360° North 150 173 5,600 -800 Descending Denver TRACON

Login

Don't have an account? Register now (free) for customized features, flight alerts, and more!